sensor_id;sensor_type;location;lat;lon;timestamp;P1;durP1;ratioP1;P2;durP2;ratioP2
73919;SDS011;62266;53.348;-1.496;2022-12-29T00:02:22;6.95;;;0.98;;
73919;SDS011;62266;53.348;-1.496;2022-12-29T00:04:49;4.03;;;1.17;;
73919;SDS011;62266;53.348;-1.496;2022-12-29T00:07:27;5.03;;;1.07;;
73919;SDS011;62266;53.348;-1.496;2022-12-29T00:09:58;8.10;;;1.13;;
73919;SDS011;62266;53.348;-1.496;2022-12-29T00:12:24;5.95;;;0.68;;
73919;SDS011;62266;53.348;-1.496;2022-12-29T00:15:31;6.70;;;1.10;;
73919;SDS011;62266;53.348;-1.496;2022-12-29T00:18:07;7.22;;;1.02;;
73919;SDS011;62266;53.348;-1.496;2022-12-29T00:23:51;6.35;;;1.38;;
73919;SDS011;62266;53.348;-1.496;2022-12-29T00:26:37;8.90;;;1.15;;
73919;SDS011;62266;53.348;-1.496;2022-12-29T00:29:35;9.73;;;2.47;;
73919;SDS011;62266;53.348;-1.496;2022-12-29T00:32:19;5.72;;;0.80;;
73919;SDS011;62266;53.348;-1.496;2022-12-29T00:35:03;6.20;;;1.27;;
73919;SDS011;62266;53.348;-1.496;2022-12-29T00:37:36;3.35;;;0.93;;
73919;SDS011;62266;53.348;-1.496;2022-12-29T00:40:24;8.48;;;1.10;;
73919;SDS011;62266;53.348;-1.496;2022-12-29T00:43:08;6.72;;;0.90;;
73919;SDS011;62266;53.348;-1.496;2022-12-29T00:45:52;8.07;;;0.82;;
73919;SDS011;62266;53.348;-1.496;2022-12-29T00:48:18;5.37;;;0.80;;
73919;SDS011;62266;53.348;-1.496;2022-12-29T00:51:04;9.32;;;1.08;;
73919;SDS011;62266;53.348;-1.496;2022-12-29T00:53:30;8.43;;;1.38;;
73919;SDS011;62266;53.348;-1.496;2022-12-29T00:55:58;6.53;;;0.70;;
73919;SDS011;62266;53.348;-1.496;2022-12-29T00:58:26;9.27;;;1.58;;
73919;SDS011;62266;53.348;-1.496;2022-12-29T01:01:00;6.70;;;0.95;;
73919;SDS011;62266;53.348;-1.496;2022-12-29T01:03:27;6.25;;;1.25;;
73919;SDS011;62266;53.348;-1.496;2022-12-29T01:05:54;8.50;;;1.53;;
73919;SDS011;62266;53.348;-1.496;2022-12-29T01:08:19;8.23;;;1.52;;
73919;SDS011;62266;53.348;-1.496;2022-12-29T01:10:45;5.47;;;1.20;;
73919;SDS011;62266;53.348;-1.496;2022-12-29T01:13:10;5.00;;;0.98;;
73919;SDS011;62266;53.348;-1.496;2022-12-29T01:15:36;6.67;;;1.20;;
73919;SDS011;62266;53.348;-1.496;2022-12-29T01:18:03;6.03;;;0.85;;
73919;SDS011;62266;53.348;-1.496;2022-12-29T01:20:28;5.07;;;1.13;;
73919;SDS011;62266;53.348;-1.496;2022-12-29T01:22:54;4.87;;;1.00;;
73919;SDS011;62266;53.348;-1.496;2022-12-29T01:25:19;6.97;;;1.00;;
73919;SDS011;62266;53.348;-1.496;2022-12-29T01:27:45;8.80;;;1.50;;
73919;SDS011;62266;53.348;-1.496;2022-12-29T01:30:11;5.93;;;0.80;;
73919;SDS011;62266;53.348;-1.496;2022-12-29T01:32:40;6.20;;;1.00;;
73919;SDS011;62266;53.348;-1.496;2022-12-29T01:35:06;3.20;;;1.00;;
73919;SDS011;62266;53.348;-1.496;2022-12-29T01:37:45;5.00;;;0.98;;
73919;SDS011;62266;53.348;-1.496;2022-12-29T01:40:31;7.78;;;0.63;;
73919;SDS011;62266;53.348;-1.496;2022-12-29T01:43:00;5.27;;;0.50;;
73919;SDS011;62266;53.348;-1.496;2022-12-29T01:45:25;6.72;;;1.17;;
73919;SDS011;62266;53.348;-1.496;2022-12-29T01:47:53;6.25;;;0.43;;
73919;SDS011;62266;53.348;-1.496;2022-12-29T01:50:33;7.40;;;1.03;;
73919;SDS011;62266;53.348;-1.496;2022-12-29T01:53:04;5.47;;;0.90;;
73919;SDS011;62266;53.348;-1.496;2022-12-29T01:55:42;7.38;;;0.88;;
73919;SDS011;62266;53.348;-1.496;2022-12-29T01:58:14;7.43;;;1.20;;
73919;SDS011;62266;53.348;-1.496;2022-12-29T02:00:41;3.70;;;0.63;;
73919;SDS011;62266;53.348;-1.496;2022-12-29T02:03:28;4.83;;;0.83;;
73919;SDS011;62266;53.348;-1.496;2022-12-29T02:08:57;4.22;;;0.70;;
73919;SDS011;62266;53.348;-1.496;2022-12-29T02:11:23;5.72;;;1.10;;
73919;SDS011;62266;53.348;-1.496;2022-12-29T02:13:57;5.30;;;0.95;;
73919;SDS011;62266;53.348;-1.496;2022-12-29T02:39:13;1.83;;;0.88;;
73919;SDS011;62266;53.348;-1.496;2022-12-29T02:46:51;0.40;;;0.25;;
73919;SDS011;62266;53.348;-1.496;2022-12-29T02:49:23;0.85;;;0.10;;
73919;SDS011;62266;53.348;-1.496;2022-12-29T02:51:54;0.88;;;0.20;;
73919;SDS011;62266;53.348;-1.496;2022-12-29T02:54:24;1.02;;;0.10;;
73919;SDS011;62266;53.348;-1.496;2022-12-29T03:00:03;1.00;;;0.15;;
73919;SDS011;62266;53.348;-1.496;2022-12-29T03:05:30;0.55;;;0.17;;
73919;SDS011;62266;53.348;-1.496;2022-12-29T03:08:24;0.20;;;0.00;;
73919;SDS011;62266;53.348;-1.496;2022-12-29T03:11:05;0.70;;;0.20;;
73919;SDS011;62266;53.348;-1.496;2022-12-29T03:13:59;1.15;;;0.20;;
73919;SDS011;62266;53.348;-1.496;2022-12-29T03:16:48;0.43;;;0.15;;
73919;SDS011;62266;53.348;-1.496;2022-12-29T03:24:47;1.83;;;0.30;;
73919;SDS011;62266;53.348;-1.496;2022-12-29T03:27:19;1.20;;;0.20;;
73919;SDS011;62266;53.348;-1.496;2022-12-29T03:29:55;0.77;;;0.52;;
73919;SDS011;62266;53.348;-1.496;2022-12-29T03:32:28;1.65;;;0.38;;
73919;SDS011;62266;53.348;-1.496;2022-12-29T03:35:02;1.20;;;0.40;;
73919;SDS011;62266;53.348;-1.496;2022-12-29T03:38:12;2.40;;;0.60;;
73919;SDS011;62266;53.348;-1.496;2022-12-29T03:40:42;2.35;;;0.70;;
73919;SDS011;62266;53.348;-1.496;2022-12-29T03:43:28;1.30;;;0.50;;
73919;SDS011;62266;53.348;-1.496;2022-12-29T03:46:03;1.63;;;0.63;;
73919;SDS011;62266;53.348;-1.496;2022-12-29T03:48:29;2.13;;;0.85;;
73919;SDS011;62266;53.348;-1.496;2022-12-29T03:50:59;2.13;;;0.93;;
73919;SDS011;62266;53.348;-1.496;2022-12-29T03:53:28;2.20;;;0.60;;
73919;SDS011;62266;53.348;-1.496;2022-12-29T03:56:06;1.50;;;0.70;;
73919;SDS011;62266;53.348;-1.496;2022-12-29T03:58:33;0.88;;;0.50;;
73919;SDS011;62266;53.348;-1.496;2022-12-29T04:00:59;1.10;;;0.63;;
73919;SDS011;62266;53.348;-1.496;2022-12-29T04:03:25;3.57;;;1.20;;
73919;SDS011;62266;53.348;-1.496;2022-12-29T04:05:51;2.07;;;0.90;;
73919;SDS011;62266;53.348;-1.496;2022-12-29T04:08:20;2.47;;;1.73;;
73919;SDS011;62266;53.348;-1.496;2022-12-29T04:10:48;1.33;;;0.60;;
73919;SDS011;62266;53.348;-1.496;2022-12-29T04:15:56;3.58;;;0.95;;
73919;SDS011;62266;53.348;-1.496;2022-12-29T04:18:22;0.57;;;0.30;;
73919;SDS011;62266;53.348;-1.496;2022-12-29T04:20:48;1.40;;;0.60;;
73919;SDS011;62266;53.348;-1.496;2022-12-29T04:23:28;3.25;;;0.95;;
73919;SDS011;62266;53.348;-1.496;2022-12-29T04:28:42;1.40;;;0.80;;
73919;SDS011;62266;53.348;-1.496;2022-12-29T04:31:08;2.20;;;1.43;;
73919;SDS011;62266;53.348;-1.496;2022-12-29T04:33:34;1.63;;;0.90;;
73919;SDS011;62266;53.348;-1.496;2022-12-29T04:36:00;1.27;;;0.90;;
73919;SDS011;62266;53.348;-1.496;2022-12-29T04:38:26;3.43;;;1.30;;
73919;SDS011;62266;53.348;-1.496;2022-12-29T04:40:51;2.45;;;1.30;;
73919;SDS011;62266;53.348;-1.496;2022-12-29T04:43:17;4.30;;;1.23;;
73919;SDS011;62266;53.348;-1.496;2022-12-29T04:45:47;2.58;;;1.52;;
73919;SDS011;62266;53.348;-1.496;2022-12-29T04:48:13;2.65;;;1.52;;
73919;SDS011;62266;53.348;-1.496;2022-12-29T04:50:39;2.00;;;1.50;;
73919;SDS011;62266;53.348;-1.496;2022-12-29T04:53:05;1.90;;;1.70;;
73919;SDS011;62266;53.348;-1.496;2022-12-29T04:58:07;3.03;;;2.20;;
73919;SDS011;62266;53.348;-1.496;2022-12-29T05:00:33;4.90;;;2.47;;
73919;SDS011;62266;53.348;-1.496;2022-12-29T05:02:59;4.65;;;2.20;;
73919;SDS011;62266;53.348;-1.496;2022-12-29T05:05:25;3.83;;;2.40;;
73919;SDS011;62266;53.348;-1.496;2022-12-29T05:07:52;3.60;;;2.00;;
73919;SDS011;62266;53.348;-1.496;2022-12-29T05:10:18;3.20;;;1.80;;
73919;SDS011;62266;53.348;-1.496;2022-12-29T05:12:44;3.55;;;1.65;;
73919;SDS011;62266;53.348;-1.496;2022-12-29T05:15:10;3.43;;;2.00;;
73919;SDS011;62266;53.348;-1.496;2022-12-29T05:17:38;2.03;;;1.50;;
73919;SDS011;62266;53.348;-1.496;2022-12-29T05:20:04;6.25;;;1.75;;
73919;SDS011;62266;53.348;-1.496;2022-12-29T05:22:31;1.92;;;1.17;;
73919;SDS011;62266;53.348;-1.496;2022-12-29T05:24:56;3.27;;;1.90;;
73919;SDS011;62266;53.348;-1.496;2022-12-29T05:27:22;1.45;;;1.00;;
73919;SDS011;62266;53.348;-1.496;2022-12-29T05:29:48;4.40;;;1.52;;
73919;SDS011;62266;53.348;-1.496;2022-12-29T05:32:14;5.47;;;1.40;;
73919;SDS011;62266;53.348;-1.496;2022-12-29T05:34:40;2.63;;;1.35;;
73919;SDS011;62266;53.348;-1.496;2022-12-29T05:37:05;2.10;;;0.97;;
73919;SDS011;62266;53.348;-1.496;2022-12-29T05:39:31;1.88;;;1.00;;
73919;SDS011;62266;53.348;-1.496;2022-12-29T05:41:57;3.08;;;1.30;;
73919;SDS011;62266;53.348;-1.496;2022-12-29T05:44:23;2.67;;;1.10;;
73919;SDS011;62266;53.348;-1.496;2022-12-29T05:46:48;5.27;;;1.20;;
73919;SDS011;62266;53.348;-1.496;2022-12-29T05:49:14;2.58;;;1.35;;
73919;SDS011;62266;53.348;-1.496;2022-12-29T05:51:41;1.70;;;0.85;;
73919;SDS011;62266;53.348;-1.496;2022-12-29T05:54:06;1.43;;;0.63;;
73919;SDS011;62266;53.348;-1.496;2022-12-29T05:56:32;2.03;;;0.67;;
73919;SDS011;62266;53.348;-1.496;2022-12-29T05:58:58;3.17;;;0.90;;
73919;SDS011;62266;53.348;-1.496;2022-12-29T06:01:23;2.63;;;0.43;;
73919;SDS011;62266;53.348;-1.496;2022-12-29T06:03:49;3.07;;;0.50;;
73919;SDS011;62266;53.348;-1.496;2022-12-29T06:06:14;2.07;;;0.40;;
73919;SDS011;62266;53.348;-1.496;2022-12-29T06:08:41;2.15;;;0.35;;
73919;SDS011;62266;53.348;-1.496;2022-12-29T06:11:07;1.97;;;0.40;;
73919;SDS011;62266;53.348;-1.496;2022-12-29T06:13:33;2.35;;;0.40;;
73919;SDS011;62266;53.348;-1.496;2022-12-29T06:15:58;2.23;;;0.30;;
73919;SDS011;62266;53.348;-1.496;2022-12-29T06:18:24;0.70;;;0.37;;
73919;SDS011;62266;53.348;-1.496;2022-12-29T06:20:50;0.68;;;0.35;;
73919;SDS011;62266;53.348;-1.496;2022-12-29T06:23:16;2.53;;;0.60;;
73919;SDS011;62266;53.348;-1.496;2022-12-29T06:25:43;2.15;;;0.52;;
73919;SDS011;62266;53.348;-1.496;2022-12-29T06:28:09;1.00;;;0.40;;
73919;SDS011;62266;53.348;-1.496;2022-12-29T06:30:36;1.73;;;0.30;;
73919;SDS011;62266;53.348;-1.496;2022-12-29T06:33:01;2.72;;;0.60;;
73919;SDS011;62266;53.348;-1.496;2022-12-29T06:35:27;0.93;;;0.50;;
73919;SDS011;62266;53.348;-1.496;2022-12-29T06:37:52;1.05;;;0.40;;
73919;SDS011;62266;53.348;-1.496;2022-12-29T06:40:18;5.83;;;0.67;;
73919;SDS011;62266;53.348;-1.496;2022-12-29T06:42:44;3.20;;;0.60;;
73919;SDS011;62266;53.348;-1.496;2022-12-29T06:45:10;0.75;;;0.45;;
73919;SDS011;62266;53.348;-1.496;2022-12-29T06:47:35;1.77;;;0.50;;
73919;SDS011;62266;53.348;-1.496;2022-12-29T06:50:01;3.70;;;0.65;;
73919;SDS011;62266;53.348;-1.496;2022-12-29T06:52:28;4.33;;;0.50;;
73919;SDS011;62266;53.348;-1.496;2022-12-29T06:54:54;1.60;;;0.38;;
73919;SDS011;62266;53.348;-1.496;2022-12-29T06:57:20;0.95;;;0.60;;
73919;SDS011;62266;53.348;-1.496;2022-12-29T06:59:46;3.58;;;0.93;;
73919;SDS011;62266;53.348;-1.496;2022-12-29T07:02:12;1.25;;;0.70;;
73919;SDS011;62266;53.348;-1.496;2022-12-29T07:04:43;2.70;;;0.50;;
73919;SDS011;62266;53.348;-1.496;2022-12-29T07:07:09;4.63;;;0.88;;
73919;SDS011;62266;53.348;-1.496;2022-12-29T07:09:34;2.30;;;0.20;;
73919;SDS011;62266;53.348;-1.496;2022-12-29T07:12:00;2.63;;;0.30;;
73919;SDS011;62266;53.348;-1.496;2022-12-29T07:14:27;3.03;;;0.30;;
73919;SDS011;62266;53.348;-1.496;2022-12-29T07:16:52;3.75;;;0.40;;
73919;SDS011;62266;53.348;-1.496;2022-12-29T07:19:18;5.20;;;0.77;;
73919;SDS011;62266;53.348;-1.496;2022-12-29T07:21:44;2.35;;;0.40;;
73919;SDS011;62266;53.348;-1.496;2022-12-29T07:24:10;2.65;;;0.52;;
73919;SDS011;62266;53.348;-1.496;2022-12-29T07:26:37;4.63;;;0.83;;
73919;SDS011;62266;53.348;-1.496;2022-12-29T07:29:03;3.53;;;0.57;;
73919;SDS011;62266;53.348;-1.496;2022-12-29T07:31:29;1.52;;;0.25;;
73919;SDS011;62266;53.348;-1.496;2022-12-29T07:33:55;1.37;;;0.40;;
73919;SDS011;62266;53.348;-1.496;2022-12-29T07:36:20;2.27;;;0.40;;
73919;SDS011;62266;53.348;-1.496;2022-12-29T07:38:47;1.50;;;0.50;;
73919;SDS011;62266;53.348;-1.496;2022-12-29T07:41:13;1.70;;;0.40;;
73919;SDS011;62266;53.348;-1.496;2022-12-29T07:43:39;3.90;;;0.80;;
73919;SDS011;62266;53.348;-1.496;2022-12-29T07:46:04;2.73;;;0.50;;
73919;SDS011;62266;53.348;-1.496;2022-12-29T07:48:30;2.05;;;0.50;;
73919;SDS011;62266;53.348;-1.496;2022-12-29T07:50:58;3.63;;;1.13;;
73919;SDS011;62266;53.348;-1.496;2022-12-29T07:53:24;2.43;;;0.57;;
73919;SDS011;62266;53.348;-1.496;2022-12-29T07:55:50;3.67;;;0.60;;
73919;SDS011;62266;53.348;-1.496;2022-12-29T07:58:16;2.43;;;0.60;;
73919;SDS011;62266;53.348;-1.496;2022-12-29T08:00:41;7.00;;;0.60;;
73919;SDS011;62266;53.348;-1.496;2022-12-29T08:03:07;1.93;;;0.60;;
73919;SDS011;62266;53.348;-1.496;2022-12-29T08:05:32;3.00;;;0.38;;
73919;SDS011;62266;53.348;-1.496;2022-12-29T08:08:00;4.50;;;0.50;;
73919;SDS011;62266;53.348;-1.496;2022-12-29T08:10:26;3.60;;;0.50;;
73919;SDS011;62266;53.348;-1.496;2022-12-29T08:12:51;1.95;;;0.50;;
73919;SDS011;62266;53.348;-1.496;2022-12-29T08:15:17;2.17;;;0.40;;
73919;SDS011;62266;53.348;-1.496;2022-12-29T08:17:43;2.93;;;0.67;;
73919;SDS011;62266;53.348;-1.496;2022-12-29T08:20:13;2.55;;;0.47;;
73919;SDS011;62266;53.348;-1.496;2022-12-29T08:22:40;2.60;;;0.47;;
73919;SDS011;62266;53.348;-1.496;2022-12-29T08:25:06;1.93;;;0.30;;
73919;SDS011;62266;53.348;-1.496;2022-12-29T08:27:32;5.85;;;0.60;;
73919;SDS011;62266;53.348;-1.496;2022-12-29T08:29:58;1.70;;;0.40;;
73919;SDS011;62266;53.348;-1.496;2022-12-29T08:32:25;3.50;;;0.43;;
73919;SDS011;62266;53.348;-1.496;2022-12-29T08:34:55;1.57;;;0.40;;
73919;SDS011;62266;53.348;-1.496;2022-12-29T08:37:20;1.92;;;0.40;;
73919;SDS011;62266;53.348;-1.496;2022-12-29T08:39:47;4.80;;;0.60;;
73919;SDS011;62266;53.348;-1.496;2022-12-29T08:42:13;1.90;;;0.40;;
73919;SDS011;62266;53.348;-1.496;2022-12-29T08:44:38;1.70;;;0.63;;
73919;SDS011;62266;53.348;-1.496;2022-12-29T08:47:04;4.63;;;0.60;;
73919;SDS011;62266;53.348;-1.496;2022-12-29T08:49:31;3.75;;;0.70;;
73919;SDS011;62266;53.348;-1.496;2022-12-29T08:51:58;3.25;;;0.70;;
73919;SDS011;62266;53.348;-1.496;2022-12-29T08:54:25;4.32;;;0.50;;
73919;SDS011;62266;53.348;-1.496;2022-12-29T08:56:51;1.25;;;0.50;;
73919;SDS011;62266;53.348;-1.496;2022-12-29T08:59:17;4.03;;;0.60;;
73919;SDS011;62266;53.348;-1.496;2022-12-29T09:01:43;1.73;;;0.40;;
73919;SDS011;62266;53.348;-1.496;2022-12-29T09:04:11;6.13;;;0.50;;
73919;SDS011;62266;53.348;-1.496;2022-12-29T09:06:39;2.08;;;1.10;;
73919;SDS011;62266;53.348;-1.496;2022-12-29T09:09:07;2.20;;;0.50;;
73919;SDS011;62266;53.348;-1.496;2022-12-29T09:11:33;1.75;;;0.30;;
73919;SDS011;62266;53.348;-1.496;2022-12-29T09:14:01;1.98;;;0.50;;
73919;SDS011;62266;53.348;-1.496;2022-12-29T09:16:28;3.57;;;1.00;;
73919;SDS011;62266;53.348;-1.496;2022-12-29T09:18:53;3.33;;;0.20;;
73919;SDS011;62266;53.348;-1.496;2022-12-29T09:21:21;1.88;;;0.40;;
73919;SDS011;62266;53.348;-1.496;2022-12-29T09:23:53;1.27;;;0.43;;
73919;SDS011;62266;53.348;-1.496;2022-12-29T09:26:21;2.78;;;0.30;;
73919;SDS011;62266;53.348;-1.496;2022-12-29T09:28:50;3.53;;;0.65;;
73919;SDS011;62266;53.348;-1.496;2022-12-29T09:31:25;3.37;;;0.40;;
73919;SDS011;62266;53.348;-1.496;2022-12-29T09:33:52;2.47;;;0.75;;
73919;SDS011;62266;53.348;-1.496;2022-12-29T09:36:21;4.32;;;0.60;;
73919;SDS011;62266;53.348;-1.496;2022-12-29T09:38:46;2.97;;;0.70;;
73919;SDS011;62266;53.348;-1.496;2022-12-29T09:41:24;3.85;;;0.60;;
73919;SDS011;62266;53.348;-1.496;2022-12-29T09:44:01;3.90;;;0.70;;
73919;SDS011;62266;53.348;-1.496;2022-12-29T09:46:37;9.68;;;2.05;;
73919;SDS011;62266;53.348;-1.496;2022-12-29T09:52:06;4.25;;;0.30;;
73919;SDS011;62266;53.348;-1.496;2022-12-29T09:54:43;3.22;;;0.60;;
73919;SDS011;62266;53.348;-1.496;2022-12-29T09:57:26;3.90;;;0.40;;
73919;SDS011;62266;53.348;-1.496;2022-12-29T10:00:05;3.85;;;0.80;;
73919;SDS011;62266;53.348;-1.496;2022-12-29T10:02:40;6.40;;;0.77;;
73919;SDS011;62266;53.348;-1.496;2022-12-29T10:05:13;4.15;;;0.70;;
73919;SDS011;62266;53.348;-1.496;2022-12-29T10:07:48;3.28;;;0.45;;
73919;SDS011;62266;53.348;-1.496;2022-12-29T10:15:55;8.68;;;0.73;;
73919;SDS011;62266;53.348;-1.496;2022-12-29T10:21:17;5.13;;;0.90;;
73919;SDS011;62266;53.348;-1.496;2022-12-29T10:23:53;5.70;;;0.67;;
73919;SDS011;62266;53.348;-1.496;2022-12-29T10:26:20;9.85;;;0.77;;
73919;SDS011;62266;53.348;-1.496;2022-12-29T10:29:03;4.60;;;0.60;;
73919;SDS011;62266;53.348;-1.496;2022-12-29T10:31:35;8.48;;;1.42;;
73919;SDS011;62266;53.348;-1.496;2022-12-29T10:34:24;7.55;;;1.02;;
73919;SDS011;62266;53.348;-1.496;2022-12-29T10:39:49;4.22;;;0.60;;
73919;SDS011;62266;53.348;-1.496;2022-12-29T10:42:25;6.78;;;0.80;;
73919;SDS011;62266;53.348;-1.496;2022-12-29T10:44:56;5.60;;;0.65;;
73919;SDS011;62266;53.348;-1.496;2022-12-29T10:47:23;3.15;;;0.63;;
73919;SDS011;62266;53.348;-1.496;2022-12-29T10:49:50;3.03;;;0.83;;
73919;SDS011;62266;53.348;-1.496;2022-12-29T10:52:17;4.38;;;0.85;;
73919;SDS011;62266;53.348;-1.496;2022-12-29T10:54:49;2.53;;;0.70;;
73919;SDS011;62266;53.348;-1.496;2022-12-29T10:57:35;2.33;;;0.40;;
73919;SDS011;62266;53.348;-1.496;2022-12-29T11:08:02;5.57;;;0.47;;
73919;SDS011;62266;53.348;-1.496;2022-12-29T11:10:34;4.40;;;0.90;;
73919;SDS011;62266;53.348;-1.496;2022-12-29T11:15:46;3.78;;;0.63;;
73919;SDS011;62266;53.348;-1.496;2022-12-29T11:20:46;6.13;;;0.85;;
73919;SDS011;62266;53.348;-1.496;2022-12-29T11:23:25;7.00;;;0.90;;
73919;SDS011;62266;53.348;-1.496;2022-12-29T11:28:36;8.85;;;1.20;;
73919;SDS011;62266;53.348;-1.496;2022-12-29T11:31:03;6.28;;;1.35;;
73919;SDS011;62266;53.348;-1.496;2022-12-29T11:33:37;9.88;;;1.35;;
73919;SDS011;62266;53.348;-1.496;2022-12-29T11:36:05;5.10;;;0.80;;
73919;SDS011;62266;53.348;-1.496;2022-12-29T11:38:50;8.50;;;0.93;;
73919;SDS011;62266;53.348;-1.496;2022-12-29T11:41:22;6.75;;;0.88;;
73919;SDS011;62266;53.348;-1.496;2022-12-29T11:43:49;5.65;;;0.85;;
73919;SDS011;62266;53.348;-1.496;2022-12-29T11:46:17;7.07;;;0.90;;
73919;SDS011;62266;53.348;-1.496;2022-12-29T11:48:45;8.07;;;0.93;;
73919;SDS011;62266;53.348;-1.496;2022-12-29T11:51:11;5.40;;;0.82;;
73919;SDS011;62266;53.348;-1.496;2022-12-29T11:53:43;8.57;;;0.88;;
73919;SDS011;62266;53.348;-1.496;2022-12-29T11:56:13;5.13;;;0.80;;
73919;SDS011;62266;53.348;-1.496;2022-12-29T11:58:40;5.13;;;0.70;;
73919;SDS011;62266;53.348;-1.496;2022-12-29T12:03:59;4.20;;;0.70;;
73919;SDS011;62266;53.348;-1.496;2022-12-29T12:06:27;6.85;;;0.95;;
73919;SDS011;62266;53.348;-1.496;2022-12-29T12:11:30;5.18;;;0.82;;
73919;SDS011;62266;53.348;-1.496;2022-12-29T12:16:42;3.10;;;0.82;;
73919;SDS011;62266;53.348;-1.496;2022-12-29T12:21:55;13.52;;;1.38;;
73919;SDS011;62266;53.348;-1.496;2022-12-29T12:24:34;7.38;;;1.02;;
73919;SDS011;62266;53.348;-1.496;2022-12-29T12:27:43;5.63;;;0.73;;
73919;SDS011;62266;53.348;-1.496;2022-12-29T12:30:27;7.72;;;1.25;;
73919;SDS011;62266;53.348;-1.496;2022-12-29T12:33:28;5.05;;;0.90;;
73919;SDS011;62266;53.348;-1.496;2022-12-29T12:39:06;7.53;;;1.25;;
73919;SDS011;62266;53.348;-1.496;2022-12-29T12:41:52;6.63;;;0.67;;
73919;SDS011;62266;53.348;-1.496;2022-12-29T13:03:43;3.75;;;0.80;;
73919;SDS011;62266;53.348;-1.496;2022-12-29T13:12:01;5.78;;;1.00;;
73919;SDS011;62266;53.348;-1.496;2022-12-29T13:23:30;4.05;;;1.10;;
73919;SDS011;62266;53.348;-1.496;2022-12-29T13:26:18;3.88;;;1.30;;
73919;SDS011;62266;53.348;-1.496;2022-12-29T13:28:58;6.38;;;0.90;;
73919;SDS011;62266;53.348;-1.496;2022-12-29T13:31:52;6.07;;;1.40;;
73919;SDS011;62266;53.348;-1.496;2022-12-29T13:37:17;3.15;;;0.82;;
73919;SDS011;62266;53.348;-1.496;2022-12-29T13:40:15;3.65;;;0.85;;
73919;SDS011;62266;53.348;-1.496;2022-12-29T13:43:00;5.70;;;0.90;;
73919;SDS011;62266;53.348;-1.496;2022-12-29T13:45:28;4.37;;;1.10;;
73919;SDS011;62266;53.348;-1.496;2022-12-29T13:53:18;4.30;;;0.70;;
73919;SDS011;62266;53.348;-1.496;2022-12-29T13:55:50;4.22;;;0.95;;
73919;SDS011;62266;53.348;-1.496;2022-12-29T13:58:31;7.37;;;1.00;;
73919;SDS011;62266;53.348;-1.496;2022-12-29T14:06:12;4.72;;;0.80;;
73919;SDS011;62266;53.348;-1.496;2022-12-29T14:08:44;4.45;;;0.85;;
73919;SDS011;62266;53.348;-1.496;2022-12-29T14:11:10;3.83;;;0.90;;
73919;SDS011;62266;53.348;-1.496;2022-12-29T14:13:38;5.13;;;0.75;;
73919;SDS011;62266;53.348;-1.496;2022-12-29T14:16:05;5.65;;;1.20;;
73919;SDS011;62266;53.348;-1.496;2022-12-29T14:18:31;6.63;;;1.00;;
73919;SDS011;62266;53.348;-1.496;2022-12-29T14:21:08;6.47;;;1.20;;
73919;SDS011;62266;53.348;-1.496;2022-12-29T14:23:44;7.55;;;1.02;;
73919;SDS011;62266;53.348;-1.496;2022-12-29T14:26:14;3.78;;;0.57;;
73919;SDS011;62266;53.348;-1.496;2022-12-29T14:28:56;3.53;;;0.75;;
73919;SDS011;62266;53.348;-1.496;2022-12-29T14:36:35;5.75;;;0.93;;
73919;SDS011;62266;53.348;-1.496;2022-12-29T14:39:03;1.38;;;0.52;;
73919;SDS011;62266;53.348;-1.496;2022-12-29T14:41:32;7.93;;;0.70;;
73919;SDS011;62266;53.348;-1.496;2022-12-29T14:49:19;2.35;;;0.45;;
73919;SDS011;62266;53.348;-1.496;2022-12-29T14:51:47;6.55;;;0.90;;
73919;SDS011;62266;53.348;-1.496;2022-12-29T14:56:59;6.32;;;0.60;;
73919;SDS011;62266;53.348;-1.496;2022-12-29T14:59:28;5.28;;;1.42;;
73919;SDS011;62266;53.348;-1.496;2022-12-29T15:02:01;5.25;;;1.08;;
73919;SDS011;62266;53.348;-1.496;2022-12-29T15:04:32;5.97;;;0.82;;
73919;SDS011;62266;53.348;-1.496;2022-12-29T15:07:02;5.90;;;1.00;;
73919;SDS011;62266;53.348;-1.496;2022-12-29T15:09:40;3.08;;;0.75;;
73919;SDS011;62266;53.348;-1.496;2022-12-29T15:15:17;3.03;;;0.80;;
73919;SDS011;62266;53.348;-1.496;2022-12-29T15:17:51;4.97;;;0.90;;
73919;SDS011;62266;53.348;-1.496;2022-12-29T15:20:26;6.30;;;1.00;;
73919;SDS011;62266;53.348;-1.496;2022-12-29T15:23:16;4.13;;;0.70;;
73919;SDS011;62266;53.348;-1.496;2022-12-29T15:25:49;5.38;;;0.90;;
73919;SDS011;62266;53.348;-1.496;2022-12-29T15:28:20;6.75;;;1.17;;
73919;SDS011;62266;53.348;-1.496;2022-12-29T15:30:53;4.18;;;1.10;;
73919;SDS011;62266;53.348;-1.496;2022-12-29T15:33:24;7.87;;;1.13;;
73919;SDS011;62266;53.348;-1.496;2022-12-29T15:35:52;5.80;;;1.10;;
73919;SDS011;62266;53.348;-1.496;2022-12-29T15:38:23;5.70;;;1.10;;
73919;SDS011;62266;53.348;-1.496;2022-12-29T15:40:54;8.52;;;1.30;;
73919;SDS011;62266;53.348;-1.496;2022-12-29T15:43:46;4.35;;;1.05;;
73919;SDS011;62266;53.348;-1.496;2022-12-29T15:46:12;6.47;;;1.20;;
73919;SDS011;62266;53.348;-1.496;2022-12-29T15:48:39;3.08;;;1.05;;
73919;SDS011;62266;53.348;-1.496;2022-12-29T15:51:10;6.07;;;0.95;;
73919;SDS011;62266;53.348;-1.496;2022-12-29T15:53:46;3.20;;;0.77;;
73919;SDS011;62266;53.348;-1.496;2022-12-29T15:56:13;3.07;;;0.90;;
73919;SDS011;62266;53.348;-1.496;2022-12-29T15:58:40;4.50;;;0.82;;
73919;SDS011;62266;53.348;-1.496;2022-12-29T16:01:16;8.82;;;1.13;;
73919;SDS011;62266;53.348;-1.496;2022-12-29T16:03:44;5.00;;;1.10;;
73919;SDS011;62266;53.348;-1.496;2022-12-29T16:06:21;5.82;;;0.80;;
73919;SDS011;62266;53.348;-1.496;2022-12-29T16:09:04;4.43;;;1.10;;
73919;SDS011;62266;53.348;-1.496;2022-12-29T16:11:44;7.60;;;1.27;;
73919;SDS011;62266;53.348;-1.496;2022-12-29T16:14:16;3.95;;;1.25;;
73919;SDS011;62266;53.348;-1.496;2022-12-29T16:16:44;4.23;;;1.33;;
73919;SDS011;62266;53.348;-1.496;2022-12-29T16:19:14;4.00;;;0.63;;
73919;SDS011;62266;53.348;-1.496;2022-12-29T16:21:48;6.07;;;0.80;;
73919;SDS011;62266;53.348;-1.496;2022-12-29T16:24:15;6.03;;;0.60;;
73919;SDS011;62266;53.348;-1.496;2022-12-29T16:26:51;4.03;;;0.85;;
73919;SDS011;62266;53.348;-1.496;2022-12-29T16:29:23;7.10;;;1.83;;
73919;SDS011;62266;53.348;-1.496;2022-12-29T16:31:50;5.63;;;1.20;;
73919;SDS011;62266;53.348;-1.496;2022-12-29T16:37:03;3.78;;;0.88;;
73919;SDS011;62266;53.348;-1.496;2022-12-29T16:39:34;4.00;;;1.00;;
73919;SDS011;62266;53.348;-1.496;2022-12-29T16:42:30;5.38;;;0.90;;
73919;SDS011;62266;53.348;-1.496;2022-12-29T16:47:42;6.80;;;1.17;;
73919;SDS011;62266;53.348;-1.496;2022-12-29T16:50:11;5.93;;;1.07;;
73919;SDS011;62266;53.348;-1.496;2022-12-29T16:52:40;6.28;;;0.93;;
73919;SDS011;62266;53.348;-1.496;2022-12-29T16:55:05;4.50;;;1.40;;
73919;SDS011;62266;53.348;-1.496;2022-12-29T16:57:32;3.72;;;1.25;;
73919;SDS011;62266;53.348;-1.496;2022-12-29T17:00:03;6.43;;;1.02;;
73919;SDS011;62266;53.348;-1.496;2022-12-29T17:02:31;4.00;;;1.17;;
73919;SDS011;62266;53.348;-1.496;2022-12-29T17:04:58;6.13;;;1.35;;
73919;SDS011;62266;53.348;-1.496;2022-12-29T17:07:24;5.07;;;1.57;;
73919;SDS011;62266;53.348;-1.496;2022-12-29T17:09:51;7.07;;;1.65;;
73919;SDS011;62266;53.348;-1.496;2022-12-29T17:12:22;5.97;;;1.10;;
73919;SDS011;62266;53.348;-1.496;2022-12-29T17:14:57;2.95;;;0.80;;
73919;SDS011;62266;53.348;-1.496;2022-12-29T17:19:56;9.05;;;1.45;;
73919;SDS011;62266;53.348;-1.496;2022-12-29T17:22:27;6.65;;;1.15;;
73919;SDS011;62266;53.348;-1.496;2022-12-29T17:24:54;5.37;;;1.07;;
73919;SDS011;62266;53.348;-1.496;2022-12-29T17:27:25;3.05;;;1.00;;
73919;SDS011;62266;53.348;-1.496;2022-12-29T17:29:55;4.35;;;1.45;;
73919;SDS011;62266;53.348;-1.496;2022-12-29T17:32:23;4.85;;;1.20;;
73919;SDS011;62266;53.348;-1.496;2022-12-29T17:34:48;5.37;;;1.20;;
73919;SDS011;62266;53.348;-1.496;2022-12-29T17:39:48;6.97;;;1.23;;
73919;SDS011;62266;53.348;-1.496;2022-12-29T17:42:14;5.00;;;1.00;;
73919;SDS011;62266;53.348;-1.496;2022-12-29T17:44:41;4.32;;;1.20;;
73919;SDS011;62266;53.348;-1.496;2022-12-29T17:47:09;4.68;;;1.48;;